Terminal Aerodrome Forecast
Issued by NWS Denver/Boulder, CO

Home | Current Version | Previous Version | Text Only | Print | Product List | Glossary On
Versions: 1 2 3 4 5 6 7 8 9 10 11 12 13 14 15 16 17 18 19 20 21 22 23 24 25 26 27 28 29 30 31 32 33 34 35 36 37 38 39 40 41 42 43 44 45 46 47 48 49 50
256
FTUS45 KBOU 300537
TAFDEN
TAF
KDEN 300537Z 3006/3112 16014KT P6SM SCT080 BKN120
     FM300900 20011KT P6SM SCT100
     FM301600 32007KT P6SM FEW100
     FM301900 06010KT P6SM SCT100
     FM302300 08010KT P6SM VCTS SCT080CB BKN120
     FM310200 15010KT P6SM FEW080 BKN120
     FM310800 20011KT P6SM SCT120=

USA.gov is the U.S. government's official web portal to all federal, state and local government web resources and services.